Latest Coastal Weather Observations for Sunshine Coast Airport

IDQ60701

Issued at 10:32 am EST Monday 20 May 2024 (issued every 10 minutes, with the page automatically refreshed every 10 minutes)

About coastal observations | Map of coastal stations | Coastal observations for QLD | Marine services | Other Formats
Station Details ID: 040861 Name: SUNSHINE COAST AIRPORT Lat: -26.60 Lon: 153.09 Height: 3.42 m
Data from the previous 72 hours. | See also: Recent months at Sunshine Coast Airport
Date/Time
EST
Wind Sea
Height
m
Swell Vis
km
Cloud Weather Temp
°C
Press
MSL
hPa
Rain since
9am
mm
Dir  Spd
kts
Gust
kts
Height
m
Period
s
Dir
20/10:00am SSW 12 15 - - - - 10 - - 20.7 1020.3 0.0
20/09:30am SSW 10 15 - - - - 10 - - 20.0 1020.4 0.0
20/09:00am SW 7 10 - - - - 10 - - 18.6 1020.5 0.0
20/08:30am WSW 6 8 - - - - 10 - - 17.2 1020.3 0.0
20/08:00am W 4 7 - - - - 10 - - 15.1 1020.2 0.0
20/07:30am W 4 5 - - - - 10 - - 12.4 1020.1 0.0
20/07:00am WNW 6 7 - - - - 10 - - 9.9 1019.9 0.0
20/06:30am NW 8 8 - - - - 10 - - 8.4 1019.6 0.0
20/06:00am WNW 5 6 - - - - 10 - - 8.8 1019.1 0.0
20/05:30am WSW 4 5 - - - - 10 - - 9.2 1018.6 0.0
20/05:00am WSW 6 7 - - - - 10 - - 11.1 1018.3 0.0
20/04:30am WSW 9 9 - - - - 10 - - 11.9 1017.9 0.0
20/04:00am WSW 8 9 - - - - 10 - - 11.5 1017.9 0.0
20/03:30am WSW 8 9 - - - - 10 - - 10.5 1017.8 0.0
20/03:00am W 6 7 - - - - 10 - - 9.6 1017.9 0.0
20/02:30am WNW 6 6 - - - - 10 - - 9.0 1018.1 0.0
20/02:00am WNW 6 6 - - - - 10 - - 9.7 1018.2 0.0
20/01:30am WNW 5 6 - - - - 10 - - 9.3 1018.3 0.0
20/01:00am WNW 4 5 - - - - 10 - - 9.6 1018.3 0.0
20/12:30am WSW 3 4 - - - - 10 - - 10.5 1018.3 0.0
20/12:00am WSW 5 5 - - - - 10 - - 10.6 1018.5 0.0
 
Date/Time
EST
Wind Sea
Height
m
Swell Vis
km
Cloud Weather Temp
°C
Press
MSL
hPa
Rain since
9am
mm
Dir  Spd
kts
Gust
kts
Height
m
Period
s
Dir
19/11:30pm NW 4 5 - - - - 10 - - 10.8 1018.7 0.0
19/11:00pm WSW 1 3 - - - - 10 - - 11.0 1018.8 0.0
19/10:30pm WSW 7 8 - - - - 10 - - 12.9 1018.8 0.0
19/10:00pm WSW 7 8 - - - - 10 - - 12.7 1018.7 0.0
19/09:30pm SW 5 6 - - - - 10 - - 12.9 1018.7 0.0
19/09:00pm SW 5 7 - - - - 10 - - 13.2 1018.7 0.0
19/08:30pm WSW 7 9 - - - - 10 - - 13.4 1018.8 0.0
19/08:00pm WSW 7 8 - - - - 10 - - 13.3 1018.6 0.0
19/07:30pm WSW 5 6 - - - - 10 - - 11.9 1018.2 0.0
19/07:00pm SW 4 5 - - - - 10 - - 14.1 1017.7 0.0
19/06:30pm SW 5 6 - - - - 10 - - 15.1 1017.4 0.0
19/06:00pm SSW 5 9 - - - - 10 - - 15.9 1016.9 0.0
19/05:30pm S 5 7 - - - - 10 - - 17.6 1016.6 0.0
19/05:00pm S 7 10 - - - - 10 - - 19.0 1016.1 0.0
19/04:30pm SSW 9 12 - - - - 10 - - 20.6 1015.8 0.0
19/04:00pm SSW 11 14 - - - - 10 - - 21.3 1015.5 0.0
19/03:30pm S 11 16 - - - - 10 - - 21.6 1015.1 0.0
19/03:00pm SSW 13 19 - - - - 10 - - 21.9 1014.9 0.0
19/02:30pm SSW 17 24 - - - - 10 - - 22.0 1014.8 0.0
19/02:00pm SSW 15 23 - - - - 10 - - 21.9 1014.7 0.0
19/01:30pm SSW 15 21 - - - - 10 - - 22.1 1014.8 0.0
19/01:00pm SSW 18 24 - - - - 10 - - 22.0 1015.1 0.0
19/12:30pm S 15 21 - - - - 10 - - 22.2 1015.4 0.0
19/12:00pm SSW 17 25 - - - - 10 - - 21.6 1015.9 0.0
19/11:30am SSW 13 18 - - - - 10 - - 21.4 1016.1 0.0
19/11:00am SSW 14 22 - - - - 10 - - 20.6 1016.6 0.0
19/10:30am SSW 15 20 - - - - 10 - - 20.0 1016.9 0.0
19/10:00am SSW 15 22 - - - - 10 - - 19.3 1017.2 0.0
19/09:30am SW 13 19 - - - - 10 - - 18.6 1017.3 0.0
19/09:00am SSW 15 19 - - - - 10 - - 18.0 1017.2 0.0
19/08:30am SSW 11 17 - - - - 10 - - 17.4 1016.8 0.0
19/08:00am SSW 11 16 - - - - 10 - - 16.6 1016.6 0.0
19/07:30am SW 10 14 - - - - 10 - - 15.3 1016.6 0.0
19/07:00am SW 6 8 - - - - 10 - - 13.5 1016.6 0.0
19/06:30am WSW 6 9 - - - - 10 - - 11.3 1016.2 0.0
19/06:00am W 5 6 - - - - 10 - - 11.0 1015.6 0.0
19/05:30am SW 6 7 - - - - 10 - - 12.2 1015.2 0.0
19/05:00am SW 7 9 - - - - 10 - - 12.8 1015.0 0.0
19/04:30am SW 10 15 - - - - 10 Partly cloudy - 13.7 1015.1 0.0
19/04:00am SSW 11 17 - - - - 10 - - 13.8 1015.0 0.0
19/03:30am SSW 10 13 - - - - 10 - - 13.5 1015.1 0.0
19/03:00am SW 12 19 - - - - 10 - - 13.8 1015.1 0.0
19/02:30am SW 11 16 - - - - 10 - - 13.7 1015.1 0.0
19/02:00am SSW 12 16 - - - - 10 - - 13.9 1015.0 0.0
19/01:30am SSW 10 13 - - - - 10 - - 14.1 1014.8 0.0
19/01:00am SSW 8 10 - - - - 10 - - 13.8 1014.9 0.0
19/12:30am SW 6 9 - - - - 10 - - 13.9 1014.9 0.0
19/12:00am SW 12 16 - - - - 10 - - 15.5 1014.9 0.0
 
Date/Time
EST
Wind Sea
Height
m
Swell Vis
km
Cloud Weather Temp
°C
Press
MSL
hPa
Rain since
9am
mm
Dir  Spd
kts
Gust
kts
Height
m
Period
s
Dir
18/11:30pm SSW 15 19 - - - - 10 - - 15.9 1015.2 0.0
18/11:00pm SW 9 13 - - - - 10 - - 16.4 1015.0 0.0
18/10:30pm SW 10 14 - - - - 10 - - 16.9 1015.1 0.0
18/10:00pm SW 8 12 - - - - 10 - - 16.5 1015.2 0.0
18/09:30pm SSW 7 9 - - - - 10 - - 16.3 1015.2 0.0
18/09:00pm WNW 5 7 - - - - 10 - - 14.8 1014.9 0.0
18/08:30pm WSW 4 7 - - - - 10 - - 16.3 1014.6 0.0
18/08:00pm WSW 7 9 - - - - 10 - - 17.1 1014.3 0.0
18/07:30pm WSW 7 9 - - - - 10 Partly cloudy - 17.5 1014.2 0.0
18/07:00pm WNW 5 6 - - - - 10 Partly cloudy - 16.6 1013.9 0.0
18/06:30pm NW 6 7 - - - - 10 - - 16.3 1013.5 0.0
18/06:00pm NW 5 7 - - - - 10 - - 16.8 1013.1 0.0
18/05:30pm SE 1 3 - - - - 10 Partly cloudy - 19.0 1012.9 0.0
18/05:00pm SE 4 5 - - - - 10 - - 21.2 1012.8 0.0
18/04:30pm ESE 6 9 - - - - 10 Partly cloudy - 22.1 1012.7 0.0
18/04:00pm ESE 7 9 - - - - 10 Partly cloudy - 22.1 1012.6 0.0
18/03:30pm E 7 9 - - - - 10 - - 22.8 1012.7 0.0
18/03:00pm ESE 8 10 - - - - 10 Mostly clear - 22.3 1012.8 0.0
18/02:30pm ESE 8 10 - - - - 10 - - 23.2 1012.8 0.0
18/02:00pm ESE 8 10 - - - - 10 - - 23.3 1012.8 0.0
18/01:30pm ESE 9 12 - - - - 10 - - 23.3 1013.3 0.0
18/01:00pm S 6 15 - - - - 10 Partly cloudy - 24.4 1013.7 0.0
18/12:30pm SSE 8 11 - - - - 10 Partly cloudy - 22.8 1014.3 0.0
18/12:00pm S 8 13 - - - - 10 - - 23.5 1014.9 0.0
18/11:30am SSW 8 12 - - - - 10 - - 23.4 1015.5 0.0
18/11:00am SSW 7 13 - - - - 10 - - 22.9 1016.0 0.0
18/10:30am SW 9 13 - - - - 10 - - 22.2 1016.5 0.0
18/10:00am SSW 9 13 - - - - 10 - - 21.9 1016.8 0.0
18/09:30am SSW 8 11 - - - - 10 - - 21.6 1017.0 0.0
18/09:00am SSW 7 11 - - - - 10 - - 21.1 1017.1 1.6
18/08:30am WSW 6 7 - - - - 10 - - 19.6 1017.3 1.6
18/08:00am WSW 8 9 - - - - 10 - - 18.6 1017.2 1.6
18/07:30am WSW 6 7 - - - - 10 Partly cloudy - 17.1 1017.2 1.6
18/07:00am WSW 5 6 - - - - 10 Partly cloudy - 15.2 1017.2 1.6
18/06:30am WSW 5 6 - - - - 10 Partly cloudy - 14.6 1017.0 1.6
18/06:00am WSW 7 8 - - - - 10 - - 15.0 1016.7 1.6
18/05:30am SW 6 7 - - - - 10 Partly cloudy - 15.3 1016.6 1.6
18/05:00am SW 7 8 - - - - 10 - - 15.6 1016.3 1.6
18/04:30am SW 8 9 - - - - 10 - - 16.0 1016.4 1.6
18/04:00am SW 7 10 - - - - 10 - - 16.1 1016.4 1.6
18/03:30am SW 7 8 - - - - 10 - - 15.9 1016.6 1.6
18/03:00am SW 7 9 - - - - 10 Mostly clear - 16.6 1016.6 1.6
18/02:30am SW 8 10 - - - - 10 Cloudy - 17.0 1017.0 1.6
18/02:00am SSW 8 11 - - - - 10 Cloudy - 17.3 1017.1 1.6
18/01:30am SSW 7 9 - - - - 10 Cloudy - 16.9 1017.6 1.6
18/01:00am SSW 5 7 - - - - 10 Cloudy - 16.1 1017.8 1.6
18/12:30am SSW 6 7 - - - - 10 Partly cloudy - 16.5 1017.9 1.6
18/12:00am SW 3 4 - - - - 10 Cloudy - 16.5 1018.0 1.6
 
Date/Time
EST
Wind Sea
Height
m
Swell Vis
km
Cloud Weather Temp
°C
Press
MSL
hPa
Rain since
9am
mm
Dir  Spd
kts
Gust
kts
Height
m
Period
s
Dir
17/11:30pm WSW 7 9 - - - - 10 Partly cloudy - 16.5 1018.3 1.6
17/11:00pm WSW 5 7 - - - - 10 Partly cloudy - 16.9 1018.8 1.6
17/10:30pm SW 7 9 - - - - 10 Cloudy - 17.3 1019.4 1.6
17/10:00pm SW 7 10 - - - - 10 Cloudy - 17.4 1019.6 1.6
17/09:30pm SSW 9 12 - - - - 10 Partly cloudy - 17.4 1019.8 1.6
17/09:19pm SSW 11 15 - - - - 10 Partly cloudy - 17.4 1020.1 1.6
17/09:00pm S 11 15 - - - - 10 Cloudy Showers 18.2 1020.2 1.4
17/08:51pm S 11 17 - - - - 10 Partly cloudy - 18.6 1020.3 1.4
17/08:30pm SSW 7 10 - - - - 10 Partly cloudy - 18.6 1020.1 1.4
17/08:00pm SW 7 9 - - - - 10 Partly cloudy - 18.0 1020.0 1.4
17/07:30pm SW 7 9 - - - - 10 Partly cloudy - 18.0 1020.0 1.4
17/07:00pm SW 8 10 - - - - 10 Cloudy - 18.3 1019.9 1.4
17/06:30pm SSW 8 12 - - - - 10 Cloudy - 18.6 1019.8 1.4
17/06:00pm SSW 10 13 - - - - 10 Cloudy - 18.8 1019.7 1.4
17/05:30pm S 10 13 - - - - 10 Cloudy - 18.8 1019.3 1.4
17/05:00pm S 14 19 - - - - 9 Partly cloudy - 19.3 1019.2 1.4
17/04:40pm SSE 15 21 - - - - 10 Partly cloudy - 19.4 1019.2 1.4
17/04:30pm SSE 16 21 - - - - 10 Partly cloudy - 19.4 1019.2 1.4
17/04:09pm SSE 15 24 - - - - 10 Partly cloudy - 19.0 1019.1 1.4
17/04:00pm S 15 21 - - - - 10 Partly cloudy - 20.0 1019.0 1.4
17/03:30pm S 16 21 - - - - 10 Partly cloudy - 19.9 1018.8 1.4
17/03:28pm S 16 21 - - - - 10 Partly cloudy - 19.7 1018.9 1.4
17/03:06pm S 15 21 - - - - 5 Partly cloudy - 20.0 1018.8 0.2
17/03:00pm S 15 20 - - - - 10 Cloudy Rain 22.1 1018.6 0.0
17/02:30pm SSW 12 17 - - - - 10 Partly cloudy - 21.4 1018.6 0.0
17/02:00pm SSW 15 21 - - - - 10 Partly cloudy - 22.6 1018.6 0.0
17/01:30pm S 15 20 - - - - 10 Partly cloudy - 21.9 1018.7 0.0
17/01:00pm SSW 13 18 - - - - 10 Partly cloudy - 22.0 1019.0 0.0
17/12:30pm S 15 19 - - - - 10 Partly cloudy - 22.1 1019.5 0.0
17/12:00pm S 13 17 - - - - 10 Cloudy - 21.5 1020.1 0.0
17/11:30am S 12 16 - - - - 10 Partly cloudy - 22.0 1020.5 0.0
17/11:00am S 12 16 - - - - 10 Partly cloudy - 22.3 1021.0 0.0

Other formats

Comma delimited format used in spreadsheet applications
http://www.bom.gov.au/fwo/IDQ60701/IDQ60701.94569.axf

JavaScript Object Notation format (JSON) in row-major order
http://www.bom.gov.au/fwo/IDQ60701/IDQ60701.94569.json

Data quality

Most of these data are generated automatically and are frequently updated. Quality checks on data are not normally performed. It is possible for incorrect values to appear. Refer to information at About Latest Weather Observations and please check the disclaimer before using these data.